Time;durP1;ratioP1;P1;durP2;ratioP2;P2;SDS_P1;SDS_P2;PMS_P1;PMS_P2;Temp;Humidity;BMP_temperature;BMP_pressure;BME280_temperature;BME280_humidity;BME280_pressure;Samples;Min_cycle;Max_cycle;Signal;HPM_P1;HPM_P2
2021/06/01 00:01:06;;;;;;;;;;;20.60;46.50;;;;;;461709;256;1405;-45
2021/06/01 00:03:07;;;;;;;;;;;20.60;46.30;;;;;;461854;256;1124;-44
2021/06/01 00:05:08;;;;;;;;;;;20.70;46.20;;;;;;461826;256;1093;-45
2021/06/01 00:07:10;;;;;;;;;;;20.80;46.10;;;;;;461646;256;1166;-45
2021/06/01 00:09:11;;;;;;;;;;;20.80;45.90;;;;;;461628;256;1094;-45
2021/06/01 00:11:12;;;;;;;;;;;20.80;45.90;;;;;;461762;256;1457;-44
2021/06/01 00:13:14;;;;;;;;;;;20.90;45.80;;;;;;460191;259;1131;-44
2021/06/01 00:15:15;;;;;;;;;;;20.90;45.80;;;;;;462939;257;1191;-45
2021/06/01 00:17:16;;;;;;;;;;;20.90;45.60;;;;;;462792;255;1245;-44
2021/06/01 00:19:17;;;;;;;;;;;21.00;45.60;;;;;;463035;255;2211;-45
2021/06/01 00:21:19;;;;;;;;;;;21.00;45.50;;;;;;462936;255;1484;-45
2021/06/01 00:23:20;;;;;;;;;;;21.00;45.50;;;;;;463042;255;1056;-45
2021/06/01 00:25:21;;;;;;;;;;;21.10;45.40;;;;;;463137;255;1255;-45
2021/06/01 00:27:22;;;;;;;;;;;21.10;45.30;;;;;;462857;255;1502;-44
2021/06/01 00:29:24;;;;;;;;;;;21.10;45.30;;;;;;462902;255;1188;-45
2021/06/01 00:31:25;;;;;;;;;;;21.20;45.20;;;;;;462812;256;1478;-45
2021/06/01 00:33:26;;;;;;;;;;;21.20;45.20;;;;;;462854;255;1073;-44
2021/06/01 00:35:28;;;;;;;;;;;21.20;45.10;;;;;;462832;255;1223;-45
2021/06/01 00:37:29;;;;;;;;;;;21.20;45.00;;;;;;462918;255;1363;-45
2021/06/01 00:39:30;;;;;;;;;;;21.30;45.10;;;;;;463034;255;2152;-44
2021/06/01 00:41:31;;;;;;;;;;;21.30;45.00;;;;;;462862;255;1196;-45
2021/06/01 00:43:33;;;;;;;;;;;21.30;45.00;;;;;;462929;255;1219;-45
2021/06/01 00:45:34;;;;;;;;;;;21.30;44.90;;;;;;463072;255;1407;-44
2021/06/01 00:47:35;;;;;;;;;;;21.40;44.90;;;;;;462983;255;1269;-45
2021/06/01 00:49:37;;;;;;;;;;;21.40;44.80;;;;;;460344;257;1123;-45
2021/06/01 00:51:38;;;;;;;;;;;21.40;44.80;;;;;;461596;257;1364;-45
2021/06/01 00:53:39;;;;;;;;;;;21.40;44.70;;;;;;460341;256;1153;-45
2021/06/01 00:55:40;;;;;;;;;;;21.50;44.70;;;;;;461562;257;1504;-45
2021/06/01 00:57:42;;;;;;;;;;;21.50;44.70;;;;;;460305;256;1269;-45
2021/06/01 00:59:43;;;;;;;;;;;21.50;44.70;;;;;;461720;257;2199;-45
2021/06/01 01:01:45;;;;;;;;;;;21.50;44.60;;;;;;460581;256;1228;-45
2021/06/01 01:03:46;;;;;;;;;;;21.50;44.60;;;;;;461678;257;1239;-45
2021/06/01 01:05:49;;;;;;;;;;;21.50;44.60;;;;;;460227;258;1137;-45
2021/06/01 01:08:01;;;;;;;;;;;21.50;44.50;;;;;;467509;254;1970;-45
2021/06/01 01:09:50;;;;;;;;;;;21.50;44.50;;;;;;460373;258;2191;-45
2021/06/01 01:11:51;;;;;;;;;;;21.60;44.50;;;;;;460791;258;1420;-45
2021/06/01 01:13:53;;;;;;;;;;;21.60;44.50;;;;;;461011;258;1082;-45
2021/06/01 01:15:54;;;;;;;;;;;21.60;44.40;;;;;;460798;258;1232;-45
2021/06/01 01:17:55;;;;;;;;;;;21.60;44.40;;;;;;460943;258;1536;-45
2021/06/01 01:19:57;;;;;;;;;;;21.60;44.30;;;;;;460902;258;2191;-45
2021/06/01 01:21:58;;;;;;;;;;;21.60;44.40;;;;;;460730;258;1256;-45
2021/06/01 01:23:59;;;;;;;;;;;21.70;44.40;;;;;;460856;258;1149;-45
2021/06/01 01:26:01;;;;;;;;;;;21.70;44.30;;;;;;460847;258;1617;-45
2021/06/01 01:28:02;;;;;;;;;;;21.70;44.30;;;;;;460816;258;1291;-45
2021/06/01 01:30:03;;;;;;;;;;;21.70;44.30;;;;;;460910;258;1240;-45
2021/06/01 01:32:05;;;;;;;;;;;21.70;44.30;;;;;;460960;258;1587;-45
2021/06/01 01:34:06;;;;;;;;;;;21.70;44.30;;;;;;461190;258;1096;-45
2021/06/01 01:36:07;;;;;;;;;;;21.70;44.30;;;;;;461172;258;1277;-45
2021/06/01 01:38:09;;;;;;;;;;;21.70;44.30;;;;;;460902;258;1227;-45
2021/06/01 01:40:10;;;;;;;;;;;21.70;44.30;;;;;;460846;258;2169;-45
2021/06/01 01:42:11;;;;;;;;;;;21.80;44.20;;;;;;460860;258;1296;-45
2021/06/01 01:44:16;;;;;;;;;;;21.80;44.20;;;;;;460832;258;1138;-45
2021/06/01 01:46:23;;;;;;;;;;;21.80;44.20;;;;;;460725;258;2325;-44
2021/06/01 01:50:34;;;;;;;;;;;21.80;44.20;;;;;;460919;258;1163;-45
2021/06/01 01:52:36;;;;;;;;;;;21.80;44.20;;;;;;460874;258;1282;-45
2021/06/01 01:54:37;;;;;;;;;;;21.80;44.10;;;;;;460941;258;1101;-45
2021/06/01 01:56:39;;;;;;;;;;;21.80;44.10;;;;;;460920;258;1200;-44
2021/06/01 01:58:40;;;;;;;;;;;21.80;44.10;;;;;;460877;258;2387;-45
2021/06/01 02:00:41;;;;;;;;;;;21.80;44.10;;;;;;460958;258;2208;-45
2021/06/01 02:02:42;;;;;;;;;;;21.90;44.10;;;;;;460961;258;1117;-45
2021/06/01 02:04:44;;;;;;;;;;;21.90;44.10;;;;;;460854;258;1117;-45
2021/06/01 02:06:45;;;;;;;;;;;21.90;44.10;;;;;;460894;258;1114;-45
2021/06/01 02:08:46;;;;;;;;;;;21.90;44.10;;;;;;460834;258;1232;-45
2021/06/01 02:10:47;;;;;;;;;;;21.90;44.10;;;;;;460906;258;1083;-45
2021/06/01 02:12:49;;;;;;;;;;;21.90;44.00;;;;;;460913;258;1394;-44
2021/06/01 02:14:50;;;;;;;;;;;21.90;44.00;;;;;;461177;258;1122;-45
2021/06/01 02:16:51;;;;;;;;;;;21.90;44.00;;;;;;460950;258;1211;-45
2021/06/01 02:18:53;;;;;;;;;;;21.90;44.00;;;;;;460826;258;1152;-45
2021/06/01 02:20:56;;;;;;;;;;;22.00;44.10;;;;;;460944;258;2157;-45
2021/06/01 02:25:14;;;;;;;;;;;21.60;44.60;;;;;;460906;258;1113;-45
2021/06/01 02:27:16;;;;;;;;;;;21.00;46.00;;;;;;460844;258;1136;-45
2021/06/01 02:29:17;;;;;;;;;;;20.60;47.10;;;;;;460900;258;1099;-44
2021/06/01 02:31:18;;;;;;;;;;;20.20;47.90;;;;;;460846;258;1217;-45
2021/06/01 02:33:19;;;;;;;;;;;20.00;48.40;;;;;;460833;258;1141;-44
2021/06/01 02:35:21;;;;;;;;;;;19.90;48.90;;;;;;460870;258;1176;-45
2021/06/01 02:37:22;;;;;;;;;;;19.70;49.20;;;;;;460827;258;1173;-45
2021/06/01 02:39:23;;;;;;;;;;;19.60;49.50;;;;;;461239;258;1119;-45
2021/06/01 02:41:25;;;;;;;;;;;19.50;49.70;;;;;;461013;258;2207;-44
2021/06/01 02:43:26;;;;;;;;;;;19.50;50.00;;;;;;460877;258;1178;-44
2021/06/01 02:45:27;;;;;;;;;;;19.40;50.20;;;;;;461076;258;1077;-44
2021/06/01 02:47:28;;;;;;;;;;;19.30;50.30;;;;;;460849;258;1327;-45
2021/06/01 02:49:30;;;;;;;;;;;19.20;50.50;;;;;;460882;258;1221;-44
2021/06/01 02:51:31;;;;;;;;;;;19.20;50.60;;;;;;460854;258;1162;-45
2021/06/01 02:53:32;;;;;;;;;;;19.20;50.70;;;;;;460965;258;1142;-44
2021/06/01 02:55:34;;;;;;;;;;;19.20;50.70;;;;;;461128;258;1111;-44
2021/06/01 02:57:35;;;;;;;;;;;19.20;50.80;;;;;;461060;258;1203;-44
2021/06/01 02:59:36;;;;;;;;;;;19.10;50.90;;;;;;461062;258;1113;-44
2021/06/01 03:01:37;;;;;;;;;;;19.10;51.00;;;;;;460825;258;2208;-45
2021/06/01 03:03:39;;;;;;;;;;;19.00;51.00;;;;;;461040;258;1077;-44
2021/06/01 03:05:41;;;;;;;;;;;19.00;51.20;;;;;;461072;258;1226;-44
2021/06/01 03:07:43;;;;;;;;;;;19.00;51.20;;;;;;460847;258;1117;-44
2021/06/01 03:09:44;;;;;;;;;;;19.00;51.20;;;;;;461027;258;1231;-44
2021/06/01 03:11:47;;;;;;;;;;;18.90;51.20;;;;;;460837;258;1083;-44
2021/06/01 03:13:47;;;;;;;;;;;18.90;51.30;;;;;;460703;258;2330;-45
2021/06/01 03:15:48;;;;;;;;;;;18.90;51.30;;;;;;460994;258;1098;-44
2021/06/01 03:17:49;;;;;;;;;;;18.80;51.40;;;;;;460894;258;1451;-44
2021/06/01 03:19:50;;;;;;;;;;;18.80;51.50;;;;;;460869;258;2200;-44
2021/06/01 03:21:52;;;;;;;;;;;18.80;51.50;;;;;;460827;258;1085;-44
2021/06/01 03:23:53;;;;;;;;;;;18.80;51.50;;;;;;460873;258;1223;-44
2021/06/01 03:25:54;;;;;;;;;;;18.80;51.50;;;;;;460994;258;1153;-44
2021/06/01 03:27:56;;;;;;;;;;;18.70;51.50;;;;;;460972;258;1109;-44
2021/06/01 03:29:57;;;;;;;;;;;18.70;51.50;;;;;;460867;258;1144;-45
2021/06/01 03:31:58;;;;;;;;;;;18.70;51.50;;;;;;460948;258;1215;-44
2021/06/01 03:33:59;;;;;;;;;;;18.70;51.50;;;;;;461027;258;1113;-44
2021/06/01 03:36:01;;;;;;;;;;;18.70;51.50;;;;;;460840;258;1164;-44
2021/06/01 03:38:02;;;;;;;;;;;18.70;51.60;;;;;;460925;258;1096;-44
2021/06/01 03:40:03;;;;;;;;;;;18.70;51.60;;;;;;460946;258;2208;-44
2021/06/01 03:42:06;;;;;;;;;;;18.70;51.70;;;;;;461058;258;1199;-44
2021/06/01 03:44:06;;;;;;;;;;;18.60;51.70;;;;;;460959;258;2259;-44
2021/06/01 03:46:07;;;;;;;;;;;18.60;51.70;;;;;;461004;258;1176;-44
2021/06/01 03:48:09;;;;;;;;;;;18.60;51.80;;;;;;460833;258;1147;-44
2021/06/01 03:50:10;;;;;;;;;;;18.60;51.80;;;;;;460913;258;1094;-45
2021/06/01 03:52:11;;;;;;;;;;;18.60;51.80;;;;;;460813;258;1477;-44
2021/06/01 03:54:12;;;;;;;;;;;18.60;51.70;;;;;;460822;258;1181;-44
2021/06/01 03:56:14;;;;;;;;;;;18.60;51.70;;;;;;460824;258;1331;-45
2021/06/01 03:58:16;;;;;;;;;;;18.60;51.90;;;;;;461007;258;1181;-44
2021/06/01 04:00:16;;;;;;;;;;;18.50;51.80;;;;;;460898;258;2216;-44
2021/06/01 04:02:18;;;;;;;;;;;18.60;51.80;;;;;;460837;258;1096;-44
2021/06/01 04:04:19;;;;;;;;;;;18.50;51.70;;;;;;460877;258;1145;-44
2021/06/01 04:06:20;;;;;;;;;;;18.70;51.50;;;;;;460855;258;1187;-44
2021/06/01 04:08:21;;;;;;;;;;;19.10;50.40;;;;;;460812;258;1119;-45
2021/06/01 04:10:23;;;;;;;;;;;19.50;49.40;;;;;;460861;258;1124;-44
2021/06/01 04:12:24;;;;;;;;;;;19.80;48.60;;;;;;461210;258;1199;-44
2021/06/01 04:14:26;;;;;;;;;;;20.00;48.00;;;;;;460863;253;1366;-45
2021/06/01 04:16:27;;;;;;;;;;;20.20;47.60;;;;;;461053;258;1149;-44
2021/06/01 04:18:28;;;;;;;;;;;20.30;47.20;;;;;;461070;258;1211;-45
2021/06/01 04:20:30;;;;;;;;;;;20.40;47.00;;;;;;460923;258;2216;-44
2021/06/01 04:22:31;;;;;;;;;;;20.50;46.70;;;;;;460676;258;1201;-45
2021/06/01 04:24:32;;;;;;;;;;;20.50;46.60;;;;;;460934;258;1201;-45
2021/06/01 04:26:34;;;;;;;;;;;20.60;46.50;;;;;;460751;258;1638;-44
2021/06/01 04:28:35;;;;;;;;;;;20.70;46.40;;;;;;460785;258;1599;-45
2021/06/01 04:30:36;;;;;;;;;;;20.70;46.10;;;;;;461160;258;1613;-45
2021/06/01 04:32:37;;;;;;;;;;;20.70;46.10;;;;;;460729;258;1252;-45
2021/06/01 04:34:39;;;;;;;;;;;20.80;46.00;;;;;;460757;258;1190;-44
2021/06/01 04:36:40;;;;;;;;;;;20.90;46.00;;;;;;460828;258;1279;-44
2021/06/01 04:38:42;;;;;;;;;;;20.90;45.80;;;;;;460788;258;1328;-45
2021/06/01 04:40:43;;;;;;;;;;;20.90;45.70;;;;;;460858;258;2204;-45
2021/06/01 04:42:44;;;;;;;;;;;20.90;45.70;;;;;;460849;258;1195;-45
2021/06/01 04:44:46;;;;;;;;;;;21.00;45.60;;;;;;460672;258;1121;-44
2021/06/01 04:46:47;;;;;;;;;;;21.00;45.50;;;;;;460615;258;1338;-45
2021/06/01 04:48:48;;;;;;;;;;;21.00;45.40;;;;;;460844;258;1206;-45
2021/06/01 04:50:49;;;;;;;;;;;21.10;45.40;;;;;;460697;258;1399;-45
2021/06/01 04:52:51;;;;;;;;;;;21.10;45.30;;;;;;460661;258;1173;-45
2021/06/01 04:54:52;;;;;;;;;;;21.10;45.20;;;;;;460869;258;1115;-44
2021/06/01 04:56:53;;;;;;;;;;;21.20;45.30;;;;;;460723;258;1519;-45
2021/06/01 04:58:54;;;;;;;;;;;21.20;45.20;;;;;;460868;258;1090;-45
2021/06/01 05:00:56;;;;;;;;;;;21.20;45.20;;;;;;460734;258;2201;-44
2021/06/01 05:02:57;;;;;;;;;;;21.20;45.10;;;;;;460639;258;1184;-45
2021/06/01 05:04:58;;;;;;;;;;;21.20;45.00;;;;;;460714;258;1159;-45
2021/06/01 05:07:00;;;;;;;;;;;21.20;45.00;;;;;;460912;258;1263;-45
2021/06/01 05:09:03;;;;;;;;;;;21.30;45.00;;;;;;460829;258;1097;-45
2021/06/01 05:11:03;;;;;;;;;;;21.30;45.00;;;;;;460639;258;2420;-44
2021/06/01 05:13:04;;;;;;;;;;;21.30;44.90;;;;;;460692;258;1311;-45
2021/06/01 05:15:06;;;;;;;;;;;21.30;44.80;;;;;;460656;258;1133;-44
2021/06/01 05:17:07;;;;;;;;;;;21.40;44.80;;;;;;460675;258;2492;-45
2021/06/01 05:19:08;;;;;;;;;;;21.40;44.80;;;;;;460716;258;1197;-45
2021/06/01 05:21:09;;;;;;;;;;;21.40;44.80;;;;;;460749;258;2204;-45
2021/06/01 05:23:10;;;;;;;;;;;21.40;44.70;;;;;;460739;258;1079;-45
2021/06/01 05:25:12;;;;;;;;;;;21.40;44.70;;;;;;460789;258;1124;-45
2021/06/01 05:27:13;;;;;;;;;;;21.50;44.70;;;;;;460672;258;1133;-45
2021/06/01 05:29:14;;;;;;;;;;;21.50;44.60;;;;;;460739;258;1108;-45
2021/06/01 05:31:19;;;;;;;;;;;21.50;44.60;;;;;;460688;258;1252;-45
2021/06/01 05:33:19;;;;;;;;;;;21.50;44.60;;;;;;460798;258;1467;-45
2021/06/01 05:35:23;;;;;;;;;;;21.50;44.60;;;;;;460657;258;1385;-45
2021/06/01 05:37:21;;;;;;;;;;;21.50;44.50;;;;;;460587;258;2033;-44
2021/06/01 05:39:23;;;;;;;;;;;21.50;44.50;;;;;;460606;258;1251;-45
2021/06/01 05:41:24;;;;;;;;;;;21.50;44.40;;;;;;460802;258;2200;-45
2021/06/01 05:43:25;;;;;;;;;;;21.60;44.50;;;;;;460761;258;1178;-45
2021/06/01 05:45:27;;;;;;;;;;;21.60;44.40;;;;;;460548;258;1340;-44
2021/06/01 05:47:28;;;;;;;;;;;21.60;44.40;;;;;;460524;258;1396;-45
2021/06/01 05:49:29;;;;;;;;;;;21.60;44.40;;;;;;460510;258;1251;-45
2021/06/01 05:51:34;;;;;;;;;;;21.60;44.30;;;;;;460495;258;1187;-45
2021/06/01 05:53:32;;;;;;;;;;;21.70;44.30;;;;;;460383;258;2373;-45
2021/06/01 05:55:34;;;;;;;;;;;21.70;44.30;;;;;;460590;258;1121;-45
2021/06/01 05:57:35;;;;;;;;;;;21.70;44.40;;;;;;460842;258;1246;-45
2021/06/01 05:59:37;;;;;;;;;;;21.70;44.30;;;;;;460788;258;1139;-45
2021/06/01 06:01:38;;;;;;;;;;;21.70;44.30;;;;;;460634;258;2209;-45
2021/06/01 06:03:39;;;;;;;;;;;21.70;44.20;;;;;;460582;258;1179;-45
2021/06/01 06:05:40;;;;;;;;;;;21.70;44.30;;;;;;460745;258;1196;-45
2021/06/01 06:07:42;;;;;;;;;;;21.70;44.20;;;;;;460592;258;1234;-45
2021/06/01 06:09:43;;;;;;;;;;;21.70;44.20;;;;;;460591;258;1128;-46
2021/06/01 06:11:44;;;;;;;;;;;21.80;44.20;;;;;;460532;258;1291;-45
2021/06/01 06:13:46;;;;;;;;;;;21.80;44.20;;;;;;460506;258;1095;-45
2021/06/01 06:15:47;;;;;;;;;;;21.80;44.20;;;;;;460617;258;1358;-45
2021/06/01 06:17:48;;;;;;;;;;;21.80;44.10;;;;;;460520;258;1223;-45
2021/06/01 06:19:49;;;;;;;;;;;21.80;44.10;;;;;;460616;258;1256;-45
2021/06/01 06:21:51;;;;;;;;;;;21.80;44.20;;;;;;460624;258;2153;-45
2021/06/01 06:23:52;;;;;;;;;;;21.80;44.10;;;;;;460583;258;1116;-45
2021/06/01 06:25:54;;;;;;;;;;;21.80;44.10;;;;;;460434;258;1362;-45
2021/06/01 06:27:55;;;;;;;;;;;21.90;44.10;;;;;;460351;258;1214;-44
2021/06/01 06:29:56;;;;;;;;;;;21.90;44.00;;;;;;460441;258;1249;-45
2021/06/01 06:31:59;;;;;;;;;;;21.90;44.00;;;;;;460335;258;1352;-44
2021/06/01 06:34:00;;;;;;;;;;;21.90;44.00;;;;;;460490;258;2254;-45
2021/06/01 06:36:00;;;;;;;;;;;21.90;44.00;;;;;;460450;258;2013;-45
2021/06/01 06:38:01;;;;;;;;;;;21.90;44.00;;;;;;460516;258;1424;-44
2021/06/01 06:40:03;;;;;;;;;;;21.90;44.10;;;;;;460549;258;1245;-45
2021/06/01 06:42:04;;;;;;;;;;;21.90;44.00;;;;;;460450;258;2211;-45
2021/06/01 06:44:08;;;;;;;;;;;21.90;44.00;;;;;;460581;258;1117;-45
2021/06/01 06:46:11;;;;;;;;;;;21.90;44.00;;;;;;460210;258;2112;-45
2021/06/01 06:48:09;;;;;;;;;;;22.00;44.10;;;;;;460235;258;1443;-45
2021/06/01 06:50:10;;;;;;;;;;;21.90;44.10;;;;;;460362;258;2242;-45
2021/06/01 06:52:11;;;;;;;;;;;21.40;44.90;;;;;;460494;258;1138;-45
2021/06/01 06:54:12;;;;;;;;;;;20.90;46.00;;;;;;460482;258;1175;-44
2021/06/01 06:56:13;;;;;;;;;;;20.50;47.20;;;;;;460390;258;1176;-44
2021/06/01 06:58:15;;;;;;;;;;;20.20;48.10;;;;;;460436;258;1223;-45
2021/06/01 07:00:16;;;;;;;;;;;20.00;48.60;;;;;;460453;258;1347;-44
2021/06/01 07:02:18;;;;;;;;;;;19.80;48.90;;;;;;460631;258;2452;-44
2021/06/01 07:04:19;;;;;;;;;;;19.70;49.30;;;;;;461138;258;903;-44
2021/06/01 07:06:20;;;;;;;;;;;19.60;49.50;;;;;;460597;258;1375;-44
2021/06/01 07:08:22;;;;;;;;;;;19.50;49.80;;;;;;461000;258;1108;-44
2021/06/01 07:10:23;;;;;;;;;;;19.50;50.00;;;;;;460302;258;1241;-44
2021/06/01 07:12:24;;;;;;;;;;;19.40;50.00;;;;;;460218;258;1273;-45
2021/06/01 07:14:25;;;;;;;;;;;19.30;50.10;;;;;;460339;258;1127;-45
2021/06/01 07:16:27;;;;;;;;;;;19.30;50.30;;;;;;460084;258;1257;-44
2021/06/01 07:18:28;;;;;;;;;;;19.30;50.40;;;;;;460020;258;1126;-44
2021/06/01 07:20:31;;;;;;;;;;;19.20;50.50;;;;;;460005;258;1348;-45
2021/06/01 07:22:32;;;;;;;;;;;19.20;50.50;;;;;;460950;258;2304;-44
2021/06/01 07:24:33;;;;;;;;;;;19.20;50.60;;;;;;461105;258;918;-44
2021/06/01 07:26:34;;;;;;;;;;;19.10;50.70;;;;;;460362;258;1487;-44
2021/06/01 07:28:35;;;;;;;;;;;19.10;50.90;;;;;;460796;258;1090;-44
2021/06/01 07:30:37;;;;;;;;;;;19.00;50.90;;;;;;460848;258;1187;-44
2021/06/01 07:32:38;;;;;;;;;;;19.00;51.00;;;;;;460817;258;1108;-44
2021/06/01 07:34:39;;;;;;;;;;;19.00;51.00;;;;;;460376;258;1112;-44
2021/06/01 07:36:41;;;;;;;;;;;19.00;51.10;;;;;;460540;258;1271;-44
2021/06/01 07:38:42;;;;;;;;;;;19.00;51.20;;;;;;461193;258;877;-44
2021/06/01 07:40:43;;;;;;;;;;;18.90;51.20;;;;;;461134;258;879;-44
2021/06/01 07:42:44;;;;;;;;;;;18.90;51.30;;;;;;460740;258;2208;-44
2021/06/01 07:44:46;;;;;;;;;;;18.90;51.30;;;;;;460360;258;1222;-44
2021/06/01 07:46:47;;;;;;;;;;;18.80;51.30;;;;;;460197;258;1245;-44
2021/06/01 07:48:48;;;;;;;;;;;18.80;51.30;;;;;;460158;258;1201;-44
2021/06/01 07:50:50;;;;;;;;;;;18.80;51.30;;;;;;460108;258;1246;-44
2021/06/01 07:52:52;;;;;;;;;;;18.80;51.30;;;;;;460186;258;1160;-44
2021/06/01 07:54:53;;;;;;;;;;;18.80;51.30;;;;;;460403;258;1096;-45
2021/06/01 07:56:55;;;;;;;;;;;18.80;51.30;;;;;;460433;258;1255;-44
2021/06/01 07:58:56;;;;;;;;;;;18.80;51.40;;;;;;460408;258;1152;-44
2021/06/01 08:00:57;;;;;;;;;;;18.70;51.40;;;;;;460372;258;1341;-44
2021/06/01 08:02:58;;;;;;;;;;;18.70;51.50;;;;;;460309;258;2204;-44
2021/06/01 08:05:00;;;;;;;;;;;18.60;51.60;;;;;;460380;258;1193;-44
2021/06/01 08:07:05;;;;;;;;;;;18.60;51.70;;;;;;460328;258;1177;-44
2021/06/01 08:09:03;;;;;;;;;;;18.60;51.60;;;;;;460157;258;2174;-44
2021/06/01 08:11:04;;;;;;;;;;;18.60;51.70;;;;;;460239;258;1406;-44
2021/06/01 08:13:05;;;;;;;;;;;18.60;51.70;;;;;;460369;258;1182;-44
2021/06/01 08:15:07;;;;;;;;;;;18.60;51.80;;;;;;460281;258;1246;-44
2021/06/01 08:17:09;;;;;;;;;;;18.60;51.80;;;;;;460343;258;1245;-44
2021/06/01 08:19:13;;;;;;;;;;;18.60;51.80;;;;;;460253;258;1262;-44
2021/06/01 08:21:13;;;;;;;;;;;18.50;51.80;;;;;;460090;258;2187;-44
2021/06/01 08:23:12;;;;;;;;;;;18.50;51.90;;;;;;460333;258;2205;-44
2021/06/01 08:25:13;;;;;;;;;;;18.50;51.80;;;;;;460314;258;1110;-44
2021/06/01 08:27:15;;;;;;;;;;;18.50;51.80;;;;;;460375;258;1342;-44
2021/06/01 08:29:16;;;;;;;;;;;18.40;51.90;;;;;;460240;258;1207;-44
2021/06/01 08:31:17;;;;;;;;;;;18.50;51.90;;;;;;460295;258;1191;-45
2021/06/01 08:33:19;;;;;;;;;;;18.50;51.90;;;;;;460204;258;1111;-44
2021/06/01 08:35:20;;;;;;;;;;;18.80;51.10;;;;;;460310;258;1090;-44
2021/06/01 08:37:21;;;;;;;;;;;19.30;49.90;;;;;;460332;258;1338;-45
2021/06/01 08:39:25;;;;;;;;;;;19.60;48.90;;;;;;460336;258;1182;-44
2021/06/01 08:41:25;;;;;;;;;;;19.90;48.30;;;;;;460707;258;2193;-44
2021/06/01 08:43:27;;;;;;;;;;;20.10;47.70;;;;;;461250;258;2192;-45
2021/06/01 08:45:28;;;;;;;;;;;20.20;47.40;;;;;;461112;258;1370;-45
2021/06/01 08:47:29;;;;;;;;;;;20.30;47.00;;;;;;461161;258;889;-44
2021/06/01 08:49:30;;;;;;;;;;;20.40;46.90;;;;;;461202;258;922;-45
2021/06/01 08:51:31;;;;;;;;;;;20.40;46.70;;;;;;460792;258;890;-44
2021/06/01 08:53:33;;;;;;;;;;;20.50;46.60;;;;;;460753;258;1101;-45
2021/06/01 08:55:34;;;;;;;;;;;20.60;46.50;;;;;;461198;258;906;-45
2021/06/01 08:57:35;;;;;;;;;;;20.60;46.30;;;;;;460680;258;948;-44
2021/06/01 08:59:37;;;;;;;;;;;20.70;46.10;;;;;;460759;258;1373;-44
2021/06/01 09:01:38;;;;;;;;;;;20.70;46.00;;;;;;461196;258;1354;-44
2021/06/01 09:03:39;;;;;;;;;;;20.80;45.90;;;;;;461234;258;2195;-45
2021/06/01 09:05:40;;;;;;;;;;;20.90;45.90;;;;;;460831;258;863;-45
2021/06/01 09:07:47;;;;;;;;;;;20.90;45.70;;;;;;461039;258;1169;-44
2021/06/01 09:09:48;;;;;;;;;;;20.90;45.60;;;;;;460532;258;1897;-45
2021/06/01 09:11:54;;;;;;;;;;;21.00;45.60;;;;;;460949;258;2237;-45
2021/06/01 09:14:12;;;;;;;;;;;21.00;45.50;;;;;;460850;258;2050;-45
2021/06/01 09:23:01;;;;;;;;;;;21.10;45.20;;;;;;460623;259;2208;-44
2021/06/01 09:25:02;;;;;;;;;;;21.20;45.10;;;;;;461140;258;1032;-45
2021/06/01 09:27:07;;;;;;;;;;;21.20;45.20;;;;;;460781;258;1173;-45
2021/06/01 09:29:06;;;;;;;;;;;21.20;45.10;;;;;;460248;258;2373;-45
2021/06/01 09:31:07;;;;;;;;;;;21.30;45.00;;;;;;460403;258;1378;-45
2021/06/01 09:33:08;;;;;;;;;;;21.30;45.00;;;;;;460348;258;1201;-44
2021/06/01 09:35:10;;;;;;;;;;;21.30;44.90;;;;;;460408;258;1378;-45
2021/06/01 09:37:11;;;;;;;;;;;21.30;44.90;;;;;;460669;258;1134;-44
2021/06/01 09:39:12;;;;;;;;;;;21.30;44.80;;;;;;460737;258;1183;-44
2021/06/01 09:41:14;;;;;;;;;;;21.40;44.80;;;;;;460389;258;1340;-45
2021/06/01 09:43:15;;;;;;;;;;;21.40;44.70;;;;;;461151;258;2265;-45
2021/06/01 09:45:16;;;;;;;;;;;21.40;44.70;;;;;;460761;258;881;-45
2021/06/01 09:47:18;;;;;;;;;;;21.40;44.70;;;;;;460803;258;1082;-45
2021/06/01 09:49:19;;;;;;;;;;;21.40;44.70;;;;;;461069;258;1349;-45
2021/06/01 09:51:20;;;;;;;;;;;21.50;44.60;;;;;;460993;258;1132;-45
2021/06/01 09:53:25;;;;;;;;;;;21.50;44.60;;;;;;460938;258;1154;-45
2021/06/01 09:55:26;;;;;;;;;;;21.50;44.50;;;;;;460528;258;1376;-45
2021/06/01 09:57:27;;;;;;;;;;;21.50;44.40;;;;;;461128;258;2192;-45
2021/06/01 09:59:27;;;;;;;;;;;21.50;44.50;;;;;;461192;258;2151;-44
2021/06/01 10:01:28;;;;;;;;;;;21.60;44.40;;;;;;460783;258;872;-45
2021/06/01 10:03:35;;;;;;;;;;;21.60;44.40;;;;;;460948;258;2200;-45
2021/06/01 10:05:33;;;;;;;;;;;21.60;44.30;;;;;;460880;258;2188;-45
2021/06/01 10:07:35;;;;;;;;;;;21.60;44.30;;;;;;460938;258;905;-45
2021/06/01 10:09:36;;;;;;;;;;;21.60;44.30;;;;;;460502;258;1111;-45
2021/06/01 10:11:37;;;;;;;;;;;21.60;44.30;;;;;;460919;258;888;-44
2021/06/01 10:13:38;;;;;;;;;;;21.70;44.30;;;;;;460683;258;983;-45
2021/06/01 10:15:40;;;;;;;;;;;21.70;44.30;;;;;;461070;258;873;-45
2021/06/01 10:17:41;;;;;;;;;;;21.70;44.20;;;;;;461050;258;924;-45
2021/06/01 10:19:43;;;;;;;;;;;21.70;44.20;;;;;;460700;258;1341;-45
2021/06/01 10:21:44;;;;;;;;;;;21.70;44.20;;;;;;461103;258;1206;-45
2021/06/01 10:23:48;;;;;;;;;;;21.70;44.20;;;;;;460719;258;2205;-44
2021/06/01 10:25:47;;;;;;;;;;;21.80;44.10;;;;;;460617;258;2179;-45
2021/06/01 10:27:48;;;;;;;;;;;21.80;44.10;;;;;;460562;258;2048;-44
2021/06/01 10:29:49;;;;;;;;;;;21.70;44.10;;;;;;460902;258;1106;-45
2021/06/01 10:31:50;;;;;;;;;;;21.70;44.20;;;;;;460626;254;1336;-45
2021/06/01 10:33:51;;;;;;;;;;;21.80;44.20;;;;;;460389;258;1069;-45
2021/06/01 10:36:01;;;;;;;;;;;21.70;44.10;;;;;;460949;258;1269;-45
2021/06/01 10:42:44;;;;;;;;;;;21.80;44.10;;;;;;460756;258;2208;-45
2021/06/01 10:44:56;;;;;;;;;;;21.80;44.10;;;;;;460244;258;2226;-44
2021/06/01 10:49:38;;;;;;;;;;;21.80;44.00;;;;;;460320;258;1222;-45
2021/06/01 10:51:27;;;;;;;;;;;21.80;44.10;;;;;;459358;258;1395;-45
2021/06/01 10:53:28;;;;;;;;;;;21.80;44.00;;;;;;460495;258;1119;-45
2021/06/01 10:55:30;;;;;;;;;;;21.90;44.00;;;;;;460405;258;1114;-45
2021/06/01 10:57:31;;;;;;;;;;;21.90;44.00;;;;;;460481;258;1241;-45
2021/06/01 10:59:32;;;;;;;;;;;21.90;44.00;;;;;;460357;258;1189;-45
2021/06/01 11:03:53;;;;;;;;;;;21.90;44.00;;;;;;460202;258;2184;-45
2021/06/01 11:05:55;;;;;;;;;;;21.90;43.90;;;;;;460188;258;1082;-44
2021/06/01 11:07:57;;;;;;;;;;;21.90;43.90;;;;;;460426;258;1154;-45
2021/06/01 11:09:57;;;;;;;;;;;21.90;43.90;;;;;;460213;258;2066;-44
2021/06/01 11:11:58;;;;;;;;;;;21.90;44.00;;;;;;460238;258;1118;-45
2021/06/01 11:14:00;;;;;;;;;;;22.00;44.00;;;;;;460090;258;1113;-44
2021/06/01 11:16:01;;;;;;;;;;;21.90;44.00;;;;;;460275;258;1358;-44
2021/06/01 11:18:03;;;;;;;;;;;22.10;43.80;;;;;;460259;258;1117;-44
2021/06/01 11:20:06;;;;;;;;;;;21.70;44.20;;;;;;460279;258;1212;-45
2021/06/01 11:22:08;;;;;;;;;;;21.20;45.40;;;;;;460179;258;2242;-45
2021/06/01 11:24:21;;;;;;;;;;;20.70;46.60;;;;;;460239;258;2157;-44
2021/06/01 11:29:03;;;;;;;;;;;20.10;48.20;;;;;;460389;258;1325;-44
2021/06/01 11:33:25;;;;;;;;;;;19.70;49.10;;;;;;460088;258;1135;-45
2021/06/01 11:35:25;;;;;;;;;;;19.60;49.40;;;;;;460024;258;1779;-44
2021/06/01 11:37:32;;;;;;;;;;;19.50;49.60;;;;;;460139;258;1299;-44
2021/06/01 11:39:34;;;;;;;;;;;19.50;49.90;;;;;;459776;258;1216;-44
2021/06/01 11:43:49;;;;;;;;;;;19.30;50.20;;;;;;460195;258;2166;-44
2021/06/01 11:45:54;;;;;;;;;;;19.30;50.30;;;;;;460092;258;1124;-44
2021/06/01 11:47:54;;;;;;;;;;;19.30;50.40;;;;;;460018;258;2284;-44
2021/06/01 11:52:12;;;;;;;;;;;19.20;50.50;;;;;;460157;258;1249;-44
2021/06/01 11:54:15;;;;;;;;;;;19.10;50.50;;;;;;460240;258;1174;-44
2021/06/01 11:56:18;;;;;;;;;;;19.10;50.70;;;;;;460044;258;1623;-44
2021/06/01 12:02:59;;;;;;;;;;;19.00;50.90;;;;;;460293;258;2168;-44
2021/06/01 12:05:03;;;;;;;;;;;19.00;50.90;;;;;;460049;258;2176;-44
2021/06/01 12:11:48;;;;;;;;;;;18.90;51.10;;;;;;460246;258;1098;-44
2021/06/01 12:13:51;;;;;;;;;;;18.90;51.20;;;;;;459760;258;2048;-44
2021/06/01 12:18:07;;;;;;;;;;;18.80;51.30;;;;;;460116;258;1110;-44
2021/06/01 12:20:08;;;;;;;;;;;18.80;51.40;;;;;;460135;258;1280;-44
2021/06/01 12:22:10;;;;;;;;;;;18.80;51.40;;;;;;460148;258;1156;-44
2021/06/01 12:24:12;;;;;;;;;;;18.80;51.40;;;;;;460179;258;2360;-44
2021/06/01 12:26:15;;;;;;;;;;;18.80;51.30;;;;;;460220;258;2065;-44
2021/06/01 12:30:53;;;;;;;;;;;18.80;51.40;;;;;;460180;258;2650;-44
2021/06/01 12:32:36;;;;;;;;;;;18.70;51.40;;;;;;460231;258;1515;-44
2021/06/01 12:34:42;;;;;;;;;;;18.70;51.50;;;;;;460265;258;1143;-45
2021/06/01 12:43:45;;;;;;;;;;;18.60;51.70;;;;;;458759;258;2208;-44
2021/06/01 12:45:51;;;;;;;;;;;18.60;51.60;;;;;;460536;258;1734;-44
2021/06/01 13:08:59;;;;;;;;;;;19.80;48.40;;;;;;461722;257;928;-44
2021/06/01 13:13:55;;;;;;;;;;;20.20;47.30;;;;;;461469;256;982;-45